createdAt,value
2022-11-29T00:00:30.963Z,9.3
2022-11-29T00:02:28.629Z,9.3
2022-11-29T00:04:26.176Z,9.3
2022-11-29T00:06:23.804Z,9.4
2022-11-29T00:08:29.307Z,9.4
2022-11-29T00:12:24.540Z,9.4
2022-11-29T00:14:23.701Z,9.4
2022-11-29T00:16:21.325Z,9.4
2022-11-29T00:18:18.868Z,9.4
2022-11-29T00:20:16.473Z,9.4
2022-11-29T00:22:21.991Z,9.3
2022-11-29T00:24:19.600Z,9.5
2022-11-29T00:26:17.217Z,9.4
2022-11-29T00:28:14.759Z,9.4
2022-11-29T00:30:12.364Z,9.3
2022-11-29T00:32:09.978Z,9.3
2022-11-29T00:34:07.581Z,9.3
2022-11-29T00:36:13.097Z,9.2
2022-11-29T00:38:10.708Z,9.2
2022-11-29T00:40:08.300Z,9.3
2022-11-29T00:41:11.095Z,9.2
2022-11-29T00:43:08.682Z,9.3
2022-11-29T00:45:06.307Z,9.2
2022-11-29T00:47:03.933Z,9.3
2022-11-29T00:49:09.402Z,9.2
2022-11-29T00:51:07.015Z,9.2
2022-11-29T00:53:04.619Z,9.2
2022-11-29T00:55:02.250Z,9.3
2022-11-29T00:56:59.859Z,9.2
2022-11-29T00:58:57.492Z,9.2
2022-11-29T01:00:55.162Z,9.3
2022-11-29T01:03:00.581Z,9.2
2022-11-29T01:08:53.415Z,9.2
2022-11-29T01:14:46.491Z,9.2
2022-11-29T01:16:51.800Z,9.3
2022-11-29T01:20:46.937Z,9.2
2022-11-29T01:22:44.563Z,9.1
2022-11-29T01:24:42.608Z,9.2
2022-11-29T01:26:39.777Z,9.3
2022-11-29T01:28:37.396Z,9.2
2022-11-29T01:30:42.943Z,9.2
2022-11-29T01:34:38.113Z,9.3
2022-11-29T01:37:05.049Z,9.3
2022-11-29T01:39:02.667Z,9.4
2022-11-29T01:41:00.287Z,9.2
2022-11-29T01:43:05.758Z,9.2
2022-11-29T01:45:03.384Z,9.2
2022-11-29T01:47:01.014Z,9.2
2022-11-29T01:48:58.624Z,9.2
2022-11-29T01:50:56.208Z,9.2
2022-11-29T01:52:53.837Z,9.3
2022-11-29T01:54:51.427Z,9.3
2022-11-29T01:56:56.941Z,9.3
2022-11-29T01:58:54.547Z,9.2
2022-11-29T02:00:52.268Z,9.4
2022-11-29T02:06:45.040Z,9.2
2022-11-29T02:08:42.651Z,9.2
2022-11-29T02:12:45.759Z,9.2
2022-11-29T02:14:43.701Z,9.3
2022-11-29T02:16:40.974Z,9.3
2022-11-29T02:18:38.580Z,9.3
2022-11-29T02:20:36.177Z,9.3
2022-11-29T02:22:33.791Z,9.2
2022-11-29T02:26:36.931Z,9.2
2022-11-29T02:28:34.556Z,9.2
2022-11-29T02:29:37.336Z,9.2
2022-11-29T02:31:34.929Z,9.2
2022-11-29T02:33:32.560Z,9.2
2022-11-29T02:35:30.190Z,9.2
2022-11-29T02:37:35.656Z,9.2
2022-11-29T02:39:33.316Z,9.3
2022-11-29T02:41:30.920Z,9.3
2022-11-29T02:43:28.568Z,9.3
2022-11-29T02:45:26.138Z,9.3
2022-11-29T02:47:23.738Z,9.2
2022-11-29T02:49:21.342Z,9.2
2022-11-29T02:51:26.841Z,9.1
2022-11-29T02:53:24.450Z,9.1
2022-11-29T02:55:22.081Z,9.2
2022-11-29T02:57:19.669Z,9.1
2022-11-29T02:59:17.274Z,9.2
2022-11-29T03:01:15.032Z,9.1
2022-11-29T03:03:12.562Z,9
2022-11-29T03:05:18.042Z,9.1
2022-11-29T03:07:15.699Z,9
2022-11-29T03:09:13.255Z,9
2022-11-29T03:11:10.874Z,9.1
2022-11-29T03:17:03.693Z,9.1
2022-11-29T03:19:09.197Z,9.1
2022-11-29T03:21:06.786Z,9
2022-11-29T03:23:04.412Z,9
2022-11-29T03:24:07.172Z,9.1
2022-11-29T03:26:04.795Z,9.1
2022-11-29T03:28:02.429Z,9.1
2022-11-29T03:34:03.142Z,9.1
2022-11-29T03:36:00.731Z,9
2022-11-29T03:39:55.984Z,9
2022-11-29T03:41:53.590Z,8.9
2022-11-29T03:43:51.201Z,9.1
2022-11-29T03:45:56.766Z,9.1
2022-11-29T03:47:54.297Z,9.1
2022-11-29T03:49:51.930Z,9.1
2022-11-29T03:51:49.529Z,9.2
2022-11-29T03:53:47.152Z,9.1
2022-11-29T03:55:44.780Z,9.1
2022-11-29T03:57:42.395Z,9.1
2022-11-29T03:59:47.885Z,9.1
2022-11-29T04:01:45.566Z,9.2
2022-11-29T04:03:43.131Z,9.1
2022-11-29T04:05:40.727Z,9.1
2022-11-29T04:07:38.375Z,8.9
2022-11-29T04:09:35.917Z,9
2022-11-29T04:11:33.457Z,8.9
2022-11-29T04:13:38.970Z,8.9
2022-11-29T04:15:36.631Z,9
2022-11-29T04:17:34.215Z,9.1
2022-11-29T04:18:36.985Z,9.2
2022-11-29T04:20:39.561Z,9.1
2022-11-29T04:22:32.202Z,9.1
2022-11-29T04:24:29.785Z,9.1
2022-11-29T04:26:35.465Z,8.9
2022-11-29T04:28:32.934Z,9
2022-11-29T04:34:25.735Z,9
2022-11-29T04:36:23.341Z,8.9
2022-11-29T04:38:20.981Z,8.9
2022-11-29T04:40:26.473Z,8.8
2022-11-29T04:42:24.079Z,8.8
2022-11-29T04:44:21.685Z,8.8
2022-11-29T04:46:19.365Z,8.9
2022-11-29T04:48:16.894Z,8.9
2022-11-29T04:50:14.507Z,9
2022-11-29T04:52:12.148Z,9.1
2022-11-29T04:54:17.641Z,8.9
2022-11-29T04:56:15.259Z,8.9
2022-11-29T04:58:12.868Z,8.8
2022-11-29T05:00:10.473Z,8.8
2022-11-29T05:02:08.091Z,8.9
2022-11-29T05:04:05.687Z,8.9
2022-11-29T05:06:03.300Z,8.9
2022-11-29T05:10:06.415Z,8.9
2022-11-29T05:12:04.019Z,8.9
2022-11-29T05:14:25.033Z,8.9
2022-11-29T05:16:22.677Z,8.9
2022-11-29T05:18:20.244Z,8.9
2022-11-29T05:20:25.752Z,8.9
2022-11-29T05:22:23.370Z,8.9
2022-11-29T05:24:20.973Z,8.9
2022-11-29T05:26:18.619Z,8.9
2022-11-29T05:28:16.219Z,8.8
2022-11-29T05:30:13.807Z,8.9
2022-11-29T05:32:11.416Z,8.9
2022-11-29T05:34:16.901Z,8.8
2022-11-29T05:36:14.551Z,8.8
2022-11-29T05:38:12.140Z,8.8
2022-11-29T05:40:09.781Z,8.8
2022-11-29T05:42:07.358Z,8.8
2022-11-29T05:44:04.958Z,8.8
2022-11-29T05:46:02.536Z,8.7
2022-11-29T05:52:03.271Z,8.7
2022-11-29T05:54:00.850Z,8.8
2022-11-29T05:56:00.020Z,8.9
2022-11-29T05:57:57.587Z,8.9
2022-11-29T05:59:55.199Z,8.9
2022-11-29T06:02:00.788Z,8.8
2022-11-29T06:03:58.304Z,8.9
2022-11-29T06:05:55.888Z,8.9
2022-11-29T06:08:56.223Z,8.8
2022-11-29T06:10:53.856Z,8.7
2022-11-29T06:12:51.472Z,8.7
2022-11-29T06:14:56.972Z,8.6
2022-11-29T06:16:54.576Z,8.6
2022-11-29T06:18:52.169Z,8.6
2022-11-29T06:20:49.805Z,8.5
2022-11-29T06:24:45.297Z,8.6
2022-11-29T06:26:42.608Z,8.7
2022-11-29T06:28:48.109Z,8.7
2022-11-29T06:30:45.723Z,8.7
2022-11-29T06:32:43.315Z,8.6
2022-11-29T06:34:40.916Z,8.6
2022-11-29T06:38:36.151Z,8.7
2022-11-29T06:40:33.756Z,8.6
2022-11-29T06:42:39.230Z,8.6
2022-11-29T06:44:36.858Z,8.7
2022-11-29T06:46:34.543Z,8.8
2022-11-29T06:48:32.044Z,8.6
2022-11-29T06:50:29.639Z,8.8
2022-11-29T06:54:24.862Z,8.6
2022-11-29T06:58:32.862Z,8.6
2022-11-29T07:00:25.568Z,8.5
2022-11-29T07:05:23.557Z,8.6
2022-11-29T07:07:21.350Z,8.6
2022-11-29T07:09:26.704Z,8.5
2022-11-29T07:11:24.276Z,8.5
2022-11-29T07:13:21.878Z,8.5
2022-11-29T07:15:19.477Z,8.5
2022-11-29T07:17:17.084Z,8.6
2022-11-29T07:19:14.695Z,8.5
2022-11-29T07:21:12.323Z,8.6
2022-11-29T07:23:17.812Z,8.7
2022-11-29T07:25:15.423Z,8.7
2022-11-29T07:27:12.996Z,8.6
2022-11-29T07:29:10.628Z,8.5
2022-11-29T07:31:08.280Z,8.5
2022-11-29T07:33:05.826Z,8.4
2022-11-29T07:35:03.426Z,8.5
2022-11-29T07:39:06.514Z,8.6
2022-11-29T07:41:04.149Z,8.5
2022-11-29T07:43:01.756Z,8.4
2022-11-29T07:44:59.365Z,8.5
2022-11-29T07:46:56.976Z,8.5
2022-11-29T07:48:54.536Z,8.5
2022-11-29T07:51:00.160Z,8.5
2022-11-29T07:52:57.670Z,8.4
2022-11-29T07:54:55.252Z,8.5
2022-11-29T07:55:58.144Z,8.6
2022-11-29T07:57:55.544Z,8.5
2022-11-29T07:59:53.141Z,8.6
2022-11-29T08:05:53.840Z,8.6
2022-11-29T08:07:51.454Z,8.6
2022-11-29T08:11:46.654Z,8.7
2022-11-29T08:13:44.242Z,8.7
2022-11-29T08:15:41.885Z,8.7
2022-11-29T08:21:42.531Z,8.7
2022-11-29T08:23:40.141Z,8.7
2022-11-29T08:25:37.738Z,8.8
2022-11-29T08:27:35.354Z,8.9
2022-11-29T08:29:32.963Z,8.8
2022-11-29T08:31:38.558Z,8.9
2022-11-29T08:33:36.071Z,8.8
2022-11-29T08:35:33.672Z,8.9
2022-11-29T08:37:31.274Z,8.8
2022-11-29T08:39:28.897Z,8.8
2022-11-29T08:41:26.498Z,8.7
2022-11-29T08:43:24.118Z,8.8
2022-11-29T08:49:24.838Z,8.9
2022-11-29T08:51:51.772Z,8.9
2022-11-29T08:53:49.355Z,8.7
2022-11-29T08:55:46.977Z,8.8
2022-11-29T08:57:52.429Z,8.8
2022-11-29T09:03:45.230Z,8.8
2022-11-29T09:05:42.857Z,8.9
2022-11-29T09:09:38.049Z,8.9
2022-11-29T09:11:47.002Z,9
2022-11-29T09:13:41.124Z,9
2022-11-29T09:15:38.736Z,8.9
2022-11-29T09:17:36.332Z,8.9
2022-11-29T09:19:33.947Z,9.1
2022-11-29T09:21:31.543Z,9.1
2022-11-29T09:23:29.160Z,9.1
2022-11-29T09:25:34.696Z,9
2022-11-29T09:27:32.288Z,9.1
2022-11-29T09:29:29.907Z,9.1
2022-11-29T09:31:27.546Z,9.2
2022-11-29T09:33:25.110Z,9.2
2022-11-29T09:35:22.725Z,9.2
2022-11-29T09:37:20.344Z,9.1
2022-11-29T09:39:25.833Z,9.1
2022-11-29T09:41:23.433Z,9.2
2022-11-29T09:43:21.044Z,9.3
2022-11-29T09:44:23.800Z,9.2
2022-11-29T09:46:21.457Z,9.3
2022-11-29T09:48:19.051Z,9.3
2022-11-29T09:50:16.651Z,9.2
2022-11-29T09:52:22.155Z,9.3
2022-11-29T09:54:19.777Z,9.3
2022-11-29T09:56:17.416Z,9.3
2022-11-29T09:58:15.004Z,9.4
2022-11-29T10:00:12.595Z,9.4
2022-11-29T10:02:10.240Z,9.5
2022-11-29T10:04:07.817Z,9.6
2022-11-29T10:06:13.339Z,9.5
2022-11-29T10:12:06.188Z,9.5
2022-11-29T10:16:01.387Z,9.5
2022-11-29T10:17:59.005Z,9.6
2022-11-29T10:20:04.583Z,9.7
2022-11-29T10:22:02.124Z,9.7
2022-11-29T10:23:59.726Z,9.7
2022-11-29T10:25:57.330Z,9.7
2022-11-29T10:27:54.918Z,9.8
2022-11-29T10:29:52.541Z,9.8
2022-11-29T10:31:50.155Z,9.8
2022-11-29T10:33:55.664Z,9.7
2022-11-29T10:35:53.247Z,9.8
2022-11-29T10:38:22.289Z,9.7
2022-11-29T10:44:46.670Z,9.8
2022-11-29T10:46:51.998Z,9.8
2022-11-29T10:48:49.638Z,9.8
2022-11-29T10:50:47.230Z,9.9
2022-11-29T10:52:44.827Z,9.8
2022-11-29T10:54:42.597Z,9.9
2022-11-29T10:56:40.075Z,9.8
2022-11-29T10:58:37.675Z,9.7
2022-11-29T11:00:43.199Z,9.7
2022-11-29T11:02:40.785Z,9.8
2022-11-29T11:04:38.395Z,9.7
2022-11-29T11:06:36.009Z,9.9
2022-11-29T11:08:33.599Z,9.9
2022-11-29T11:10:31.221Z,10
2022-11-29T11:12:28.862Z,10
2022-11-29T11:14:34.353Z,9.9
2022-11-29T11:16:37.078Z,10
2022-11-29T11:18:29.567Z,10
2022-11-29T11:20:27.184Z,10.1
2022-11-29T11:22:24.810Z,10.2
2022-11-29T11:24:22.439Z,10.2
2022-11-29T11:26:20.060Z,10.1
2022-11-29T11:28:25.541Z,10.1
2022-11-29T11:33:23.558Z,10.2
2022-11-29T11:35:21.169Z,10.2
2022-11-29T11:45:18.615Z,10.6
2022-11-29T11:47:16.227Z,10.7
2022-11-29T11:49:13.831Z,10.5
2022-11-29T11:51:11.450Z,10.4
2022-11-29T11:53:09.060Z,10.4
2022-11-29T11:55:14.556Z,10.3
2022-11-29T11:57:12.180Z,10.3
2022-11-29T11:59:09.803Z,10.2
2022-11-29T12:01:07.409Z,10.2
2022-11-29T12:03:05.111Z,10.2
2022-11-29T12:05:02.624Z,10.1
2022-11-29T12:07:00.246Z,10.1
2022-11-29T12:09:05.754Z,10
2022-11-29T12:11:07.286Z,10
2022-11-29T12:13:00.964Z,10.1
2022-11-29T12:14:58.611Z,10.2
2022-11-29T12:16:56.262Z,10.3
2022-11-29T12:18:53.875Z,10.2
2022-11-29T12:22:56.981Z,10.2
2022-11-29T12:24:54.590Z,10.3
2022-11-29T12:29:15.534Z,10.3
2022-11-29T12:33:10.732Z,10.3
2022-11-29T12:35:19.031Z,10.3
2022-11-29T12:37:13.858Z,10.3
2022-11-29T12:39:11.508Z,10.2
2022-11-29T12:41:09.108Z,10.3
2022-11-29T12:45:04.312Z,10.3
2022-11-29T12:49:07.424Z,10.5
2022-11-29T12:51:05.054Z,10.5
2022-11-29T12:56:57.897Z,10.8
2022-11-29T12:58:55.533Z,10.9
2022-11-29T13:00:53.128Z,10.7
2022-11-29T13:02:58.690Z,10.6
2022-11-29T13:04:59.707Z,10.6
2022-11-29T13:06:53.851Z,10.5
2022-11-29T13:08:51.490Z,10.5
2022-11-29T13:10:49.123Z,10.6
2022-11-29T13:12:46.734Z,10.6
2022-11-29T13:14:44.554Z,10.6
2022-11-29T13:16:49.904Z,10.5
2022-11-29T13:18:47.490Z,10.6
2022-11-29T13:21:47.856Z,10.7
2022-11-29T13:24:08.023Z,10.7
2022-11-29T13:27:40.708Z,10.7
2022-11-29T13:29:46.258Z,10.8
2022-11-29T13:31:43.969Z,10.8
2022-11-29T13:33:41.487Z,10.8
2022-11-29T13:35:39.100Z,10.8
2022-11-29T13:37:36.718Z,10.7
2022-11-29T13:39:34.366Z,10.7
2022-11-29T13:41:31.987Z,10.8
2022-11-29T13:45:35.113Z,10.8
2022-11-29T13:47:32.731Z,10.7
2022-11-29T13:53:25.578Z,10.8
2022-11-29T13:59:26.343Z,11
2022-11-29T14:01:23.979Z,11
2022-11-29T14:03:21.627Z,10.9
2022-11-29T14:05:19.171Z,10.9
2022-11-29T14:07:16.848Z,10.8
2022-11-29T14:09:19.453Z,10.8
2022-11-29T14:11:19.949Z,10.7
2022-11-29T14:15:15.140Z,10.7
2022-11-29T14:16:17.983Z,10.8
2022-11-29T14:18:15.500Z,10.8
2022-11-29T14:20:13.146Z,10.8
2022-11-29T14:22:10.755Z,10.7
2022-11-29T14:24:16.270Z,10.8
2022-11-29T14:26:13.881Z,10.8
2022-11-29T14:28:11.493Z,10.8
2022-11-29T14:30:09.113Z,10.7
2022-11-29T14:32:06.740Z,10.6
2022-11-29T14:34:04.335Z,10.5
2022-11-29T14:36:01.948Z,10.5
2022-11-29T14:38:07.468Z,10.5
2022-11-29T14:40:05.234Z,10.6
2022-11-29T14:45:57.962Z,10.5
2022-11-29T14:47:55.563Z,10.5
2022-11-29T14:51:58.730Z,10.6
2022-11-29T14:53:56.348Z,10.6
2022-11-29T14:55:53.959Z,10.6
2022-11-29T14:57:51.562Z,10.5
2022-11-29T14:59:49.154Z,10.4
2022-11-29T15:01:46.915Z,10.5
2022-11-29T15:03:44.410Z,10.6
2022-11-29T15:05:49.874Z,10.5
2022-11-29T15:07:47.583Z,10.5
2022-11-29T15:09:45.111Z,10.4
2022-11-29T15:10:47.866Z,10.5
2022-11-29T15:24:39.025Z,10.3
2022-11-29T15:26:36.610Z,10.1
2022-11-29T15:28:34.231Z,10.2
2022-11-29T15:30:31.838Z,10.2
2022-11-29T15:32:37.356Z,10.1
2022-11-29T15:34:35.009Z,10.2
2022-11-29T15:36:32.631Z,10.1
2022-11-29T15:38:30.254Z,10.1
2022-11-29T15:40:27.853Z,10.2
2022-11-29T15:42:31.211Z,10.1
2022-11-29T15:44:23.119Z,10.2
2022-11-29T15:46:28.628Z,10.1
2022-11-29T15:48:26.225Z,10.2
2022-11-29T15:50:23.827Z,10.2
2022-11-29T15:54:19.023Z,10.2
2022-11-29T16:00:19.814Z,10.1
2022-11-29T16:02:17.425Z,10.2
2022-11-29T16:04:15.041Z,10.1
2022-11-29T16:10:37.203Z,10
2022-11-29T16:12:42.669Z,10.1
2022-11-29T16:14:40.300Z,10
2022-11-29T16:16:37.959Z,10
2022-11-29T16:18:35.522Z,10
2022-11-29T16:20:33.156Z,10.1
2022-11-29T16:22:30.793Z,10
2022-11-29T16:24:28.398Z,10
2022-11-29T16:26:33.919Z,10
2022-11-29T16:28:31.549Z,10
2022-11-29T16:30:29.140Z,10
2022-11-29T16:36:21.969Z,10
2022-11-29T16:38:19.608Z,9.9
2022-11-29T16:44:20.318Z,10
2022-11-29T16:54:16.273Z,9.8
2022-11-29T16:56:13.884Z,9.9
2022-11-29T16:58:11.505Z,10
2022-11-29T17:01:11.930Z,9.9
2022-11-29T17:03:09.502Z,9.9
2022-11-29T17:05:07.098Z,9.9
2022-11-29T17:07:12.652Z,9.8
2022-11-29T17:09:10.242Z,9.9
2022-11-29T17:11:07.849Z,9.9
2022-11-29T17:13:05.448Z,9.9
2022-11-29T17:15:03.062Z,10
2022-11-29T17:17:00.737Z,10
2022-11-29T17:18:59.815Z,9.9
2022-11-29T17:21:05.272Z,10
2022-11-29T17:23:02.854Z,10
2022-11-29T17:25:00.463Z,10.1
2022-11-29T17:26:58.056Z,10
2022-11-29T17:28:55.662Z,10
2022-11-29T17:30:53.280Z,10
2022-11-29T17:32:50.910Z,10.1
2022-11-29T17:34:56.412Z,10
2022-11-29T17:36:53.997Z,9.9
2022-11-29T17:38:51.599Z,10
2022-11-29T17:40:49.179Z,10.1
2022-11-29T17:44:44.395Z,9.9
2022-11-29T17:46:42.014Z,10
2022-11-29T17:48:47.493Z,9.9
2022-11-29T17:52:42.734Z,9.9
2022-11-29T17:53:45.470Z,10
2022-11-29T17:55:43.102Z,10
2022-11-29T17:57:40.713Z,10
2022-11-29T17:59:38.278Z,9.9
2022-11-29T18:01:43.888Z,9.9
2022-11-29T18:03:41.429Z,10
2022-11-29T18:05:39.009Z,10
2022-11-29T18:07:36.652Z,10
2022-11-29T18:09:34.241Z,10
2022-11-29T18:11:36.474Z,10.1
2022-11-29T18:13:29.472Z,10.1
2022-11-29T18:17:32.624Z,10.1
2022-11-29T18:19:30.192Z,10
2022-11-29T18:21:27.793Z,10
2022-11-29T18:25:38.221Z,10
2022-11-29T18:31:23.775Z,9.9
2022-11-29T18:33:21.390Z,9.9
2022-11-29T18:35:19.000Z,10
2022-11-29T18:37:33.734Z,10
2022-11-29T18:39:14.271Z,9.9
2022-11-29T18:41:11.825Z,10
2022-11-29T18:43:17.344Z,9.8
2022-11-29T18:45:14.948Z,9.9
2022-11-29T18:47:12.573Z,9.8
2022-11-29T18:48:15.336Z,9.8
2022-11-29T18:50:12.956Z,9.8
2022-11-29T18:52:10.574Z,9.8
2022-11-29T18:54:08.179Z,9.7
2022-11-29T18:56:13.692Z,9.8
2022-11-29T18:58:11.319Z,9.8
2022-11-29T19:00:08.931Z,9.9
2022-11-29T19:02:06.609Z,9.9
2022-11-29T19:04:04.137Z,9.8
2022-11-29T19:06:01.776Z,9.9
2022-11-29T19:07:59.416Z,10
2022-11-29T19:10:04.909Z,9.9
2022-11-29T19:14:00.125Z,9.9
2022-11-29T19:15:57.926Z,9.9
2022-11-29T19:17:55.326Z,9.8
2022-11-29T19:21:50.528Z,9.8
2022-11-29T19:23:56.023Z,9.8
2022-11-29T19:25:53.662Z,9.8
2022-11-29T19:27:51.263Z,9.8
2022-11-29T19:29:49.222Z,9.8
2022-11-29T19:37:47.185Z,9.9
2022-11-29T19:39:45.000Z,9.9
2022-11-29T19:41:42.416Z,9.8
2022-11-29T19:44:09.341Z,9.7
2022-11-29T19:48:04.557Z,9.7
2022-11-29T19:50:10.045Z,9.8
2022-11-29T19:52:07.664Z,9.8
2022-11-29T19:56:02.876Z,9.7
2022-11-29T19:58:00.496Z,9.7
2022-11-29T19:59:58.126Z,9.8
2022-11-29T20:01:55.767Z,9.8
2022-11-29T20:04:01.259Z,9.6
2022-11-29T20:05:58.879Z,9.7
2022-11-29T20:07:56.509Z,9.8
2022-11-29T20:09:54.072Z,9.7
2022-11-29T20:11:51.688Z,9.6
2022-11-29T20:13:49.296Z,9.5
2022-11-29T20:15:46.975Z,9.6
2022-11-29T20:17:52.413Z,9.5
2022-11-29T20:19:50.421Z,9.6
2022-11-29T20:21:47.624Z,9.4
2022-11-29T20:29:38.038Z,9.5
2022-11-29T20:31:49.434Z,9.4
2022-11-29T20:33:41.150Z,9.4
2022-11-29T20:36:41.506Z,9.3
2022-11-29T20:38:39.149Z,9.4
2022-11-29T20:44:39.844Z,9.2
2022-11-29T20:46:37.519Z,9.3
2022-11-29T20:48:35.025Z,9.3
2022-11-29T20:50:32.637Z,9.2
2022-11-29T20:52:30.272Z,9.2
2022-11-29T20:54:27.882Z,9.1
2022-11-29T20:56:25.463Z,9.2
2022-11-29T20:58:30.972Z,9
2022-11-29T21:00:28.577Z,9
2022-11-29T21:02:26.193Z,9
2022-11-29T21:04:23.903Z,9
2022-11-29T21:06:21.406Z,8.8
2022-11-29T21:08:18.992Z,9
2022-11-29T21:10:16.591Z,9
2022-11-29T21:12:22.142Z,8.8
2022-11-29T21:14:19.724Z,8.8
2022-11-29T21:16:17.607Z,8.9
2022-11-29T21:18:14.979Z,8.8
2022-11-29T21:20:12.553Z,8.9
2022-11-29T21:22:10.144Z,8.7
2022-11-29T21:24:07.743Z,8.8
2022-11-29T21:30:08.448Z,8.7
2022-11-29T21:31:11.246Z,8.7
2022-11-29T21:33:08.823Z,8.6
2022-11-29T21:35:06.424Z,8.6
2022-11-29T21:37:04.043Z,8.6
2022-11-29T21:39:09.513Z,8.6
2022-11-29T21:41:07.169Z,8.6
2022-11-29T21:45:02.346Z,8.8
2022-11-29T21:46:59.960Z,8.7
2022-11-29T21:48:57.555Z,8.6
2022-11-29T21:50:55.141Z,8.7
2022-11-29T21:54:58.255Z,8.5
2022-11-29T21:56:55.837Z,8.6
2022-11-29T21:58:53.458Z,8.7
2022-11-29T22:00:51.035Z,8.6
2022-11-29T22:02:48.699Z,8.7
2022-11-29T22:04:46.623Z,8.6
2022-11-29T22:06:51.725Z,8.7
2022-11-29T22:08:49.306Z,8.7
2022-11-29T22:14:42.152Z,8.8
2022-11-29T22:16:39.741Z,8.7
2022-11-29T22:18:37.325Z,8.6
2022-11-29T22:22:40.391Z,8.6
2022-11-29T22:24:37.992Z,8.5
2022-11-29T22:25:40.757Z,8.6
2022-11-29T22:27:38.357Z,8.5
2022-11-29T22:31:33.652Z,8.4
2022-11-29T22:33:38.999Z,8.3
2022-11-29T22:37:34.220Z,8.4
2022-11-29T22:39:31.816Z,8.4
2022-11-29T22:41:29.424Z,8.4
2022-11-29T22:43:27.021Z,8.3
2022-11-29T22:45:24.609Z,8.4
2022-11-29T22:47:30.125Z,8.3
2022-11-29T22:49:27.707Z,8.4
2022-11-29T22:51:25.322Z,8.2
2022-11-29T22:53:22.896Z,8.4
2022-11-29T22:55:20.517Z,8.3
2022-11-29T22:57:18.121Z,8.4
2022-11-29T22:59:15.713Z,8.2
2022-11-29T23:01:22.830Z,8.3
2022-11-29T23:03:20.350Z,8.3
2022-11-29T23:05:17.950Z,8.2
2022-11-29T23:07:15.571Z,8.2
2022-11-29T23:09:13.176Z,8.3
2022-11-29T23:11:10.785Z,8.2
2022-11-29T23:13:08.360Z,8.3
2022-11-29T23:15:13.889Z,8.3
2022-11-29T23:17:11.499Z,8.3
2022-11-29T23:19:09.085Z,8.2
2022-11-29T23:25:21.313Z,8.1
2022-11-29T23:27:26.787Z,8
2022-11-29T23:29:24.384Z,8.1
2022-11-29T23:31:22.032Z,8.1
2022-11-29T23:33:19.566Z,8.1
2022-11-29T23:35:17.139Z,8.1
2022-11-29T23:37:14.730Z,8.2
2022-11-29T23:39:12.331Z,8.2
2022-11-29T23:41:17.827Z,8.2
2022-11-29T23:43:15.437Z,8.2
2022-11-29T23:45:13.012Z,8.3
2022-11-29T23:47:10.612Z,8.3
2022-11-29T23:49:08.221Z,8.3
2022-11-29T23:51:05.816Z,8.2
2022-11-29T23:53:03.422Z,8.3
2022-11-29T23:55:08.912Z,8.2
2022-11-29T23:57:06.536Z,8.3
2022-11-29T23:59:04.087Z,8.1
